Womack, Louisiana
Current Conditions -  °F | °C
As of 10:15 AM on Sunday 23 Nov 2014 (Local Time) from KRSN Reporting Station
Moderate Rain Moderate Rain  
Wind Chill: 62°   Ceiling: 500
Heat Index: 62°   Visibility: 4mi
Dew Point: 62°   Wind: 6mph
Humidity: 100%   Direction: 290°WNW
Pressure: 29.55"   Gusts: NA
Location:  32.2406°N, 92.4109°W
Report Text: KRSN 231615Z AUTO 29005KT 4SM RA BKN005 BKN010 OVC015 17/17 A2955 RMK AO2 LTG DSNT E P0004 T01660166
Loading
Personal Weather Stations






























Interactive Weather Map New forecast layout! Learn more

10-Day Weather Forecast

Advertisements
Track Severe Weather on mobile